Time;durP1;ratioP1;P1;durP2;ratioP2;P2;SDS_P1;SDS_P2;PMS_P1;PMS_P2;Temp;Humidity;BMP_temperature;BMP_pressure;BME280_temperature;BME280_humidity;BME280_pressure;Samples;Min_cycle;Max_cycle;Signal;HPM_P1;HPM_P2
2022/11/06 00:00:19;;;;;;;7.70;6.40;;;;;;;10.92;56.33;101028.88;822798;24;1352;-79
2022/11/06 00:00:40;;;;;;;9.55;6.78;;;;;;;10.91;56.35;101032.31;820376;24;1180;-79
2022/11/06 00:01:12;;;;;;;9.98;6.80;;;;;;;10.88;56.47;101032.22;817900;24;1130;-79
2022/11/06 00:01:33;;;;;;;8.38;6.50;;;;;;;10.93;56.44;101041.09;817825;24;952;-79
2022/11/06 00:01:53;;;;;;;8.48;7.03;;;;;;;10.95;56.31;101028.09;820091;24;1125;-79
2022/11/06 00:02:14;;;;;;;8.52;7.22;;;;;;;10.91;56.35;101016.66;828532;23;1163;-79
2022/11/06 00:02:35;;;;;;;8.57;7.00;;;;;;;10.89;56.44;101023.56;823869;24;1174;-79
2022/11/06 00:02:57;;;;;;;7.10;6.00;;;;;;;10.90;56.36;101035.78;824234;24;1167;-79
2022/11/06 00:03:18;;;;;;;6.70;5.72;;;;;;;10.88;56.50;101032.22;820759;23;1271;-80
2022/11/06 00:03:40;;;;;;;8.02;6.13;;;;;;;10.89;56.33;101033.09;826829;23;1254;-79
2022/11/06 00:04:00;;;;;;;9.45;6.50;;;;;;;10.92;56.75;101034.09;823977;23;1241;-79
2022/11/06 00:04:21;;;;;;;10.60;6.70;;;;;;;10.92;56.43;101041.03;825379;24;1192;-80
2022/11/06 00:04:41;;;;;;;8.10;6.30;;;;;;;10.86;56.44;101031.28;830504;23;1044;-80
2022/11/06 00:07:00;;;;;;;8.20;6.55;;;;;;;10.91;56.61;101036.66;832336;23;908;-79
2022/11/06 00:07:21;;;;;;;9.00;6.80;;;;;;;10.87;56.58;101029.56;827684;23;1104;-79
2022/11/06 00:07:45;;;;;;;9.20;7.05;;;;;;;10.90;56.69;101024.44;829375;23;1149;-79
2022/11/06 00:08:15;;;;;;;8.80;6.65;;;;;;;10.92;56.49;101028.88;828133;23;1248;-79
2022/11/06 00:08:38;;;;;;;7.90;6.50;;;;;;;10.95;56.61;101028.09;829411;23;1056;-79
2022/11/06 00:09:00;;;;;;;8.27;6.72;;;;;;;10.95;56.43;101028.94;827979;23;1169;-79
2022/11/06 00:09:21;;;;;;;8.10;6.80;;;;;;;10.94;56.44;101021.09;827679;23;1452;-79
2022/11/06 00:09:41;;;;;;;9.43;7.00;;;;;;;10.96;56.60;101035.94;825279;24;1162;-79
2022/11/06 00:10:02;;;;;;;9.55;7.30;;;;;;;10.94;56.44;101021.97;823602;24;1181;-80
2022/11/06 00:10:23;;;;;;;8.77;7.40;;;;;;;11.01;56.24;101030.00;828293;23;1058;-79
2022/11/06 00:10:43;;;;;;;9.23;7.27;;;;;;;11.00;56.45;101026.47;828023;23;1232;-79
2022/11/06 00:11:12;;;;;;;10.38;7.20;;;;;;;11.07;56.40;101035.41;820548;24;1147;-79
2022/11/06 00:11:33;;;;;;;10.80;6.97;;;;;;;11.05;56.27;101027.50;824228;24;932;-80
2022/11/06 00:11:55;;;;;;;9.00;6.90;;;;;;;11.00;56.38;101018.63;823985;24;1145;-79
2022/11/06 00:12:15;;;;;;;8.13;6.85;;;;;;;11.05;56.17;101018.81;827411;23;1225;-80
2022/11/06 00:12:36;;;;;;;7.57;6.77;;;;;;;11.06;56.41;101031.03;828072;23;1244;-79
2022/11/06 00:12:58;;;;;;;8.18;6.70;;;;;;;11.11;56.12;101021.56;823990;23;1149;-79
2022/11/06 00:13:19;;;;;;;8.10;6.60;;;;;;;11.11;56.20;101029.41;820379;24;1487;-79
2022/11/06 00:13:40;;;;;;;8.35;6.70;;;;;;;11.13;56.06;101027.75;816368;24;1036;-80
2022/11/06 00:14:02;;;;;;;7.70;6.45;;;;;;;11.18;56.17;101026.16;825392;24;1099;-79
2022/11/06 00:14:22;;;;;;;7.57;6.30;;;;;;;11.14;55.96;101019.06;833298;23;826;-79
2022/11/06 00:14:43;;;;;;;8.57;6.40;;;;;;;11.20;56.13;101031.44;833328;23;1089;-79
2022/11/06 00:15:04;;;;;;;9.40;6.70;;;;;;;11.17;55.86;101021.78;827901;23;1300;-80
2022/11/06 00:15:25;;;;;;;10.23;7.13;;;;;;;11.18;56.07;101025.28;823704;24;1327;-79
2022/11/06 00:15:45;;;;;;;10.17;6.87;;;;;;;11.23;56.00;101035.03;825558;23;948;-79
2022/11/06 00:16:11;;;;;;;10.00;6.82;;;;;;;11.24;55.94;101034.16;824225;24;1163;-79
2022/11/06 00:16:32;;;;;;;10.65;6.72;;;;;;;11.21;55.88;101031.47;829322;23;2006;-79
2022/11/06 00:16:53;;;;;;;8.90;6.65;;;;;;;11.25;55.96;101053.38;829429;23;954;-79
2022/11/06 00:17:13;;;;;;;9.13;6.40;;;;;;;11.22;55.84;101028.03;831682;23;1354;-79
2022/11/06 00:17:34;;;;;;;8.63;6.30;;;;;;;11.18;55.59;101028.75;827975;23;1165;-79
2022/11/06 00:17:55;;;;;;;9.50;6.70;;;;;;;11.27;55.98;101030.78;820161;24;1232;-80
2022/11/06 00:18:16;;;;;;;8.77;7.05;;;;;;;11.26;55.78;101035.94;824202;24;1162;-80
2022/11/06 00:18:38;;;;;;;8.02;7.00;;;;;;;11.30;55.77;101036.06;827923;23;1189;-79
2022/11/06 00:19:00;;;;;;;7.55;6.85;;;;;;;11.27;55.53;101022.03;828204;23;1182;-79
2022/11/06 00:19:21;;;;;;;7.80;7.00;;;;;;;11.29;55.59;101033.44;812594;24;1262;-80
2022/11/06 00:19:41;;;;;;;8.23;7.30;;;;;;;11.30;55.96;101017.78;821607;24;1097;-80
2022/11/06 00:20:03;;;;;;;8.00;7.20;;;;;;;11.34;55.61;101023.97;824811;24;1084;-79
2022/11/06 00:20:24;;;;;;;7.32;6.60;;;;;;;11.33;55.80;101025.72;825613;24;847;-79
2022/11/06 00:20:45;;;;;;;7.40;6.55;;;;;;;11.33;55.54;101019.59;825580;24;1091;-79
2022/11/06 00:21:12;;;;;;;9.37;6.80;;;;;;;11.38;55.44;101038.94;827474;23;1130;-80
2022/11/06 00:21:34;;;;;;;9.18;6.70;;;;;;;11.31;55.50;101021.28;827850;23;1131;-80
2022/11/06 00:21:58;;;;;;;8.40;6.50;;;;;;;11.33;55.62;101025.72;827714;23;1392;-80
2022/11/06 00:22:18;;;;;;;7.63;6.43;;;;;;;11.33;55.52;101030.06;831755;23;1368;-79
2022/11/06 00:22:39;;;;;;;7.72;6.43;;;;;;;11.43;55.45;101032.09;827653;23;1061;-80
2022/11/06 00:22:59;;;;;;;8.83;6.57;;;;;;;11.36;55.33;101014.47;825488;24;1126;-79
2022/11/06 00:23:20;;;;;;;8.50;6.38;;;;;;;11.35;55.38;101013.59;819942;23;1260;-80
2022/11/06 00:23:41;;;;;;;9.90;6.50;;;;;;;11.37;55.45;101016.25;820228;24;1079;-80
2022/11/06 00:24:04;;;;;;;9.23;6.38;;;;;;;11.44;55.23;101033.84;820188;24;1112;-80
2022/11/06 00:24:25;;;;;;;9.50;6.35;;;;;;;11.37;55.31;101021.47;821513;24;1159;-80
2022/11/06 00:24:45;;;;;;;9.95;6.53;;;;;;;11.41;55.33;101018.09;820443;24;1201;-80
2022/11/06 00:25:06;;;;;;;10.23;6.67;;;;;;;11.42;55.29;101014.63;821507;24;1105;-80
2022/11/06 00:25:27;;;;;;;9.23;6.90;;;;;;;11.43;55.30;101026.84;823765;24;1043;-80
2022/11/06 00:25:55;;;;;;;9.63;6.80;;;;;;;11.46;55.26;101026.97;820111;24;1036;-79
2022/11/06 00:26:19;;;;;;;9.70;6.50;;;;;;;11.49;55.28;101036.63;823941;24;1924;-79
2022/11/06 00:26:40;;;;;;;9.23;6.93;;;;;;;11.43;55.22;101018.16;823913;24;1325;-79
2022/11/06 00:27:02;;;;;;;8.90;7.07;;;;;;;11.43;55.04;101011.19;823940;24;1841;-79
2022/11/06 00:27:23;;;;;;;7.95;7.05;;;;;;;11.44;55.20;101010.34;827815;23;1138;-79
2022/11/06 00:27:43;;;;;;;8.67;7.00;;;;;;;11.43;55.04;101008.56;825435;24;1117;-79
2022/11/06 00:28:04;;;;;;;8.57;6.75;;;;;;;11.46;55.30;101015.63;825634;24;1081;-79
2022/11/06 00:28:25;;;;;;;9.82;7.07;;;;;;;11.48;55.34;101021.75;825201;24;1074;-80
2022/11/06 00:28:45;;;;;;;9.97;6.97;;;;;;;11.45;55.16;101004.28;824075;23;1250;-79
2022/11/06 00:29:06;;;;;;;13.00;7.60;;;;;;;11.48;55.31;101025.28;823846;24;1174;-80
2022/11/06 00:29:27;;;;;;;12.45;7.38;;;;;;;11.46;55.06;101021.75;823840;24;1301;-80
2022/11/06 00:29:47;;;;;;;11.77;7.13;;;;;;;11.49;55.10;101021.81;823651;24;1161;-79
2022/11/06 00:30:12;;;;;;;9.57;6.85;;;;;;;11.52;54.81;101023.63;827792;23;1178;-79
2022/11/06 00:30:33;;;;;;;9.10;6.78;;;;;;;11.51;55.07;101032.31;831794;23;1359;-79
2022/11/06 00:31:03;;;;;;;8.43;6.40;;;;;;;11.54;55.12;101034.13;831373;23;1068;-79
2022/11/06 00:31:30;;;;;;;8.13;6.13;;;;;;;11.56;55.19;101037.66;823518;24;949;-79
2022/11/06 00:31:51;;;;;;;7.97;6.50;;;;;;;11.54;54.87;101036.75;827639;23;1109;-79
2022/11/06 00:32:11;;;;;;;8.45;6.30;;;;;;;11.54;54.98;101031.53;821644;24;1046;-79
2022/11/06 00:32:32;;;;;;;10.95;6.50;;;;;;;11.49;55.09;101036.63;815982;24;1045;-79
2022/11/06 00:32:52;;;;;;;11.70;6.53;;;;;;;11.51;55.26;101027.09;820148;24;1042;-79
2022/11/06 00:33:13;;;;;;;10.80;6.55;;;;;;;11.44;55.03;101027.75;827780;23;1136;-79
2022/11/06 00:33:35;;;;;;;8.23;6.50;;;;;;;11.52;54.90;101037.59;828928;23;943;-79
2022/11/06 00:33:57;;;;;;;7.65;6.57;;;;;;;11.58;54.99;101035.97;828993;23;1196;-80
2022/11/06 00:34:18;;;;;;;8.80;6.78;;;;;;;11.55;54.89;101038.53;826219;23;1371;-79
2022/11/06 00:34:39;;;;;;;9.65;7.00;;;;;;;11.60;54.94;101040.41;831430;23;1052;-79
2022/11/06 00:35:00;;;;;;;9.25;6.70;;;;;;;11.54;55.12;101036.75;832983;23;1223;-79
2022/11/06 00:35:20;;;;;;;8.30;6.63;;;;;;;11.61;54.83;101036.94;827558;23;1077;-79
2022/11/06 00:35:41;;;;;;;8.47;6.60;;;;;;;11.58;54.97;101025.53;827797;23;1249;-80
2022/11/06 00:36:08;;;;;;;9.35;6.93;;;;;;;11.59;54.75;101032.53;827912;23;1973;-80
2022/11/06 00:36:29;;;;;;;8.55;6.35;;;;;;;11.57;54.68;101023.75;831605;23;1939;-80
2022/11/06 00:36:50;;;;;;;8.45;6.43;;;;;;;11.63;54.65;101029.16;824110;24;1331;-79
2022/11/06 00:37:10;;;;;;;7.60;6.40;;;;;;;11.69;54.90;101039.84;820194;24;1069;-80
2022/11/06 00:37:32;;;;;;;7.43;6.30;;;;;;;11.65;54.84;101035.34;820251;24;1064;-79
2022/11/06 00:37:53;;;;;;;6.93;6.03;;;;;;;11.72;54.53;101033.78;825032;24;864;-79
2022/11/06 00:38:14;;;;;;;9.65;6.20;;;;;;;11.70;54.52;101030.25;825565;24;1048;-79
2022/11/06 00:38:34;;;;;;;10.40;6.60;;;;;;;11.76;54.24;101030.41;827580;23;1159;-79
2022/11/06 00:38:56;;;;;;;10.02;6.65;;;;;;;11.72;54.46;101034.66;827737;23;1076;-78
2022/11/06 00:39:17;;;;;;;7.60;6.60;;;;;;;11.71;54.51;101026.78;823836;23;1131;-79
2022/11/06 00:39:37;;;;;;;7.70;6.50;;;;;;;11.73;54.21;101018.13;827687;23;1401;-79
2022/11/06 00:39:58;;;;;;;8.20;6.90;;;;;;;11.70;54.37;101028.53;828981;23;1105;-79
2022/11/06 00:40:20;;;;;;;8.65;7.10;;;;;;;11.76;54.41;101035.66;829178;23;1141;-80
2022/11/06 00:40:40;;;;;;;7.95;6.88;;;;;;;11.67;54.40;101035.41;827892;23;861;-79
2022/11/06 00:41:03;;;;;;;7.88;6.65;;;;;;;11.69;54.36;101032.00;824168;24;1065;-79
2022/11/06 00:41:24;;;;;;;8.93;6.50;;;;;;;11.74;54.35;101043.44;819921;24;1258;-79
2022/11/06 00:41:44;;;;;;;8.90;6.70;;;;;;;11.71;54.23;101027.69;823981;24;1051;-79
2022/11/06 00:42:05;;;;;;;9.80;6.50;;;;;;;11.74;54.58;101042.56;825413;24;995;-79
2022/11/06 00:42:26;;;;;;;9.02;6.70;;;;;;;11.68;54.77;101035.41;820079;24;1255;-79
2022/11/06 00:42:46;;;;;;;10.30;7.00;;;;;;;11.61;54.47;101020.41;824079;24;1143;-80
2022/11/06 00:43:07;;;;;;;9.10;6.80;;;;;;;11.64;54.49;101026.59;825474;24;987;-80
2022/11/06 00:43:27;;;;;;;9.73;6.68;;;;;;;11.69;54.55;101032.00;820092;24;1080;-79
2022/11/06 00:43:50;;;;;;;8.80;6.53;;;;;;;11.66;54.63;101029.28;821443;24;1048;-79
2022/11/06 00:44:11;;;;;;;9.77;7.00;;;;;;;11.69;54.36;101032.00;824093;24;1092;-79
2022/11/06 00:44:31;;;;;;;8.90;6.97;;;;;;;11.61;54.60;101021.28;823914;24;1139;-79
2022/11/06 00:44:52;;;;;;;8.90;6.87;;;;;;;11.66;54.40;101029.28;823718;23;1166;-80
2022/11/06 00:45:12;;;;;;;8.27;6.93;;;;;;;11.69;54.33;101039.84;821641;24;1011;-79
2022/11/06 00:45:33;;;;;;;9.25;6.95;;;;;;;11.68;54.49;101031.94;816382;24;1233;-80
2022/11/06 00:45:59;;;;;;;9.43;6.90;;;;;;;11.73;54.43;101041.66;819778;24;1103;-79
2022/11/06 00:46:20;;;;;;;9.77;6.95;;;;;;;11.70;54.27;101023.28;823897;24;1956;-79
2022/11/06 00:46:40;;;;;;;8.70;6.97;;;;;;;11.68;54.41;101026.72;825454;24;900;-80
2022/11/06 00:47:01;;;;;;;9.45;7.10;;;;;;;11.68;54.54;101030.19;825629;24;798;-80
2022/11/06 00:47:27;;;;;;;8.82;6.97;;;;;;;11.63;54.51;101030.03;826830;23;740;-79
2022/11/06 00:47:48;;;;;;;8.40;6.80;;;;;;;11.61;54.57;101030.84;827850;23;2245;-78
2022/11/06 00:48:08;;;;;;;9.38;6.95;;;;;;;11.60;54.59;101034.28;828145;23;1508;-79
2022/11/06 00:48:29;;;;;;;8.95;6.57;;;;;;;11.57;54.78;101026.38;827554;23;1127;-77
2022/11/06 00:48:51;;;;;;;8.63;6.50;;;;;;;11.69;54.75;101039.84;829362;23;1106;-79
2022/11/06 00:49:12;;;;;;;7.70;6.10;;;;;;;11.67;54.64;101031.03;833263;23;1088;-79
2022/11/06 00:49:33;;;;;;;8.60;6.23;;;;;;;11.67;54.48;101031.03;828905;23;983;-79
2022/11/06 00:49:53;;;;;;;7.95;5.95;;;;;;;11.64;54.34;101025.69;828870;23;1093;-80
2022/11/06 00:50:14;;;;;;;7.53;6.30;;;;;;;11.61;54.54;101030.84;824804;23;1465;-79
2022/11/06 00:50:34;;;;;;;7.80;6.60;;;;;;;11.59;54.48;101014.22;823797;24;1084;-79
2022/11/06 00:51:10;;;;;;;9.52;6.60;;;;;;;11.62;54.39;101030.88;825522;24;995;-79
2022/11/06 00:51:34;;;;;;;9.18;6.30;;;;;;;11.69;54.45;101045.06;828527;23;888;-79
2022/11/06 00:51:55;;;;;;;7.30;6.40;;;;;;;11.62;54.39;101024.78;829248;23;1077;-80
2022/11/06 00:52:15;;;;;;;6.63;6.03;;;;;;;11.58;54.33;101022.91;829288;23;1214;-79
2022/11/06 00:52:36;;;;;;;7.17;6.20;;;;;;;11.55;54.32;101026.31;829102;23;896;-79
2022/11/06 00:52:57;;;;;;;7.40;6.20;;;;;;;11.65;54.60;101037.97;831746;23;1136;-79
2022/11/06 00:53:17;;;;;;;8.97;6.53;;;;;;;11.59;54.60;101024.69;820227;24;1231;-80
2022/11/06 00:53:38;;;;;;;9.57;6.80;;;;;;;11.57;54.68;101023.75;820074;24;1127;-79
2022/11/06 00:54:02;;;;;;;9.32;7.00;;;;;;;11.70;54.28;101043.31;820079;24;1301;-79
2022/11/06 00:54:23;;;;;;;8.73;6.55;;;;;;;11.70;54.47;101040.69;821468;24;847;-79
2022/11/06 00:54:44;;;;;;;9.70;6.63;;;;;;;11.59;54.71;101037.75;821520;24;991;-79
2022/11/06 00:55:04;;;;;;;9.45;6.50;;;;;;;11.61;54.51;101033.47;820280;24;1078;-79
2022/11/06 00:55:28;;;;;;;10.10;6.82;;;;;;;11.61;54.49;101036.09;828845;23;1198;-79
2022/11/06 00:55:49;;;;;;;8.88;6.63;;;;;;;11.64;54.41;101051.84;822565;24;893;-79
2022/11/06 00:56:13;;;;;;;8.90;6.43;;;;;;;11.65;54.34;101048.41;831653;23;1105;-80
2022/11/06 00:56:34;;;;;;;8.77;6.40;;;;;;;11.55;54.67;101025.44;829520;23;1957;-80
2022/11/06 00:56:55;;;;;;;8.15;6.20;;;;;;;11.61;54.59;101042.19;820365;24;1199;-80
2022/11/06 00:57:16;;;;;;;7.30;6.00;;;;;;;11.60;54.38;101036.91;821587;24;1167;-79
2022/11/06 00:57:36;;;;;;;6.93;5.80;;;;;;;11.51;54.43;101030.56;820119;24;1132;-80
2022/11/06 00:57:57;;;;;;;7.68;5.85;;;;;;;11.45;54.61;101017.34;816316;24;1160;-79
2022/11/06 00:58:18;;;;;;;7.50;6.10;;;;;;;11.48;54.67;101027.88;818306;24;999;-79
2022/11/06 00:58:39;;;;;;;8.00;6.10;;;;;;;11.40;54.64;101015.44;825989;23;1019;-80
2022/11/06 00:59:08;;;;;;;7.72;6.40;;;;;;;11.49;54.91;101037.50;828008;23;1175;-79
2022/11/06 00:59:29;;;;;;;7.75;6.70;;;;;;;11.41;55.03;101014.63;821236;24;1057;-80
2022/11/06 00:59:50;;;;;;;8.48;6.60;;;;;;;11.39;54.91;101027.63;823624;23;1137;-79
2022/11/06 01:00:11;;;;;;;8.98;6.70;;;;;;;11.43;54.99;101031.22;824248;24;1278;-79
2022/11/06 01:00:32;;;;;;;9.52;6.90;;;;;;;11.41;54.94;101032.91;827627;23;1261;-80
2022/11/06 01:00:53;;;;;;;8.93;7.30;;;;;;;11.42;55.07;101040.78;823935;23;1145;-79
2022/11/06 01:01:18;;;;;;;8.50;7.20;;;;;;;11.40;55.16;101042.47;829333;23;1136;-79
2022/11/06 01:01:42;;;;;;;7.70;6.90;;;;;;;11.40;55.08;101033.72;829368;23;1065;-79
2022/11/06 01:02:03;;;;;;;7.70;6.60;;;;;;;11.35;55.12;101044.94;829481;23;1077;-80
2022/11/06 01:02:24;;;;;;;10.30;6.90;;;;;;;11.28;55.28;101036.88;827717;23;1147;-80
2022/11/06 01:02:45;;;;;;;11.43;7.10;;;;;;;11.34;55.06;101021.38;831331;23;1013;-80
2022/11/06 01:03:06;;;;;;;11.57;6.90;;;;;;;11.35;55.18;101028.38;821598;24;1011;-79
2022/11/06 01:03:27;;;;;;;10.45;6.65;;;;;;;11.32;55.04;101023.94;823801;24;1056;-80
2022/11/06 01:03:53;;;;;;;9.97;6.80;;;;;;;11.35;55.12;101039.72;825511;24;1052;-79
2022/11/06 01:04:16;;;;;;;7.65;6.55;;;;;;;11.27;55.12;101029.88;824165;24;1023;-80
2022/11/06 01:04:37;;;;;;;7.30;6.40;;;;;;;11.29;55.24;101030.81;829021;23;1078;-80
2022/11/06 01:04:57;;;;;;;9.13;6.37;;;;;;;11.31;55.33;101031.75;829379;23;1178;-80
2022/11/06 01:05:18;;;;;;;11.70;6.50;;;;;;;11.26;55.18;101022.88;831288;23;1003;-79
2022/11/06 01:05:40;;;;;;;12.13;6.57;;;;;;;11.27;55.13;101032.47;827526;23;1407;-80
2022/11/06 01:06:07;;;;;;;9.07;6.30;;;;;;;11.25;55.28;101022.00;828159;23;1086;-79
2022/11/06 01:06:32;;;;;;;10.25;6.38;;;;;;;11.29;55.18;101031.69;829021;23;1097;-79
2022/11/06 01:06:55;;;;;;;11.13;6.32;;;;;;;11.23;55.36;101031.50;827659;23;1105;-79
2022/11/06 01:07:16;;;;;;;9.95;6.20;;;;;;;11.30;55.28;101035.22;829370;23;967;-79
2022/11/06 01:07:37;;;;;;;10.00;6.22;;;;;;;11.30;55.28;101037.81;829207;23;984;-79
2022/11/06 01:07:57;;;;;;;10.75;6.70;;;;;;;11.28;55.30;101036.88;829360;23;888;-79
2022/11/06 01:08:18;;;;;;;11.13;6.60;;;;;;;11.23;55.57;101037.63;829228;23;1019;-79
2022/11/06 01:08:39;;;;;;;10.97;6.90;;;;;;;11.17;55.49;101032.22;820099;24;1138;-79
2022/11/06 01:09:01;;;;;;;8.32;6.43;;;;;;;11.24;55.53;101034.16;818208;24;1209;-79
2022/11/06 01:09:23;;;;;;;7.65;6.22;;;;;;;11.22;55.29;101042.81;819922;24;886;-78
2022/11/06 01:09:44;;;;;;;7.57;5.90;;;;;;;11.15;55.51;101027.78;819982;24;1191;-79
2022/11/06 01:10:06;;;;;;;8.18;5.97;;;;;;;11.24;55.33;101036.78;820891;24;917;-80
2022/11/06 01:10:27;;;;;;;9.18;5.88;;;;;;;11.18;55.47;101028.75;819821;24;1246;-80
2022/11/06 01:10:48;;;;;;;8.45;5.80;;;;;;;11.21;55.75;101034.09;825311;24;955;-80
2022/11/06 01:11:18;;;;;;;8.40;5.83;;;;;;;11.15;55.46;101030.41;820290;24;1241;-79
2022/11/06 01:11:42;;;;;;;9.57;6.57;;;;;;;11.16;55.67;101034.78;821263;24;1150;-79
2022/11/06 01:12:03;;;;;;;9.15;6.40;;;;;;;11.24;55.67;101047.22;820152;24;1265;-79
2022/11/06 01:12:23;;;;;;;9.57;6.55;;;;;;;11.16;55.48;101033.06;824040;24;1195;-79
2022/11/06 01:12:44;;;;;;;10.43;6.60;;;;;;;11.20;55.41;101034.91;829297;23;1126;-80
2022/11/06 01:13:05;;;;;;;10.90;6.65;;;;;;;11.20;55.29;101034.03;827956;23;1109;-78
2022/11/06 01:13:25;;;;;;;10.40;6.70;;;;;;;11.14;55.50;101029.53;825399;24;1001;-79
2022/11/06 01:13:49;;;;;;;8.90;6.60;;;;;;;11.15;55.74;101033.91;825500;24;955;-79
2022/11/06 01:14:13;;;;;;;9.18;6.70;;;;;;;11.10;55.34;101011.97;820303;24;1020;-79
2022/11/06 01:14:33;;;;;;;9.13;6.43;;;;;;;11.13;55.51;101019.91;819948;24;1199;-79
2022/11/06 01:14:54;;;;;;;9.65;6.25;;;;;;;11.10;55.57;101019.81;824004;24;1195;-79
2022/11/06 01:15:16;;;;;;;10.70;6.50;;;;;;;11.19;55.60;101033.13;816416;24;1079;-80
2022/11/06 01:15:36;;;;;;;11.70;6.80;;;;;;;11.09;55.54;101020.66;823934;24;1308;-78
2022/11/06 01:15:57;;;;;;;9.67;6.40;;;;;;;11.12;55.71;101031.19;823888;24;1186;-79
2022/11/06 01:16:18;;;;;;;7.90;6.40;;;;;;;11.09;55.63;101023.28;825508;24;1077;-80
2022/11/06 01:16:39;;;;;;;6.80;6.00;;;;;;;11.17;55.77;101036.56;823788;24;1897;-79
2022/11/06 01:17:00;;;;;;;8.18;6.38;;;;;;;11.10;55.77;101022.44;823564;23;1145;-79
2022/11/06 01:17:20;;;;;;;9.73;6.40;;;;;;;11.10;55.64;101025.03;823790;24;1419;-79
2022/11/06 01:17:41;;;;;;;9.63;6.70;;;;;;;11.13;55.93;101027.75;823133;24;1112;-79
2022/11/06 01:18:02;;;;;;;10.45;6.68;;;;;;;11.14;55.80;101029.53;824248;24;1219;-80
2022/11/06 01:18:22;;;;;;;9.65;6.65;;;;;;;11.12;55.60;101031.19;820180;24;1128;-79
2022/11/06 01:18:44;;;;;;;8.97;6.10;;;;;;;11.10;55.81;101027.66;821992;24;1212;-80
2022/11/06 01:19:05;;;;;;;7.07;6.05;;;;;;;11.12;55.93;101030.31;820983;24;1093;-80
2022/11/06 01:19:26;;;;;;;7.80;6.25;;;;;;;11.11;55.84;101026.81;823937;24;1368;-79
2022/11/06 01:19:46;;;;;;;8.37;6.50;;;;;;;11.15;55.61;101028.69;825351;24;1026;-79
2022/11/06 01:20:08;;;;;;;8.75;6.50;;;;;;;11.18;55.61;101028.75;827810;23;1160;-79
2022/11/06 01:20:29;;;;;;;7.70;6.15;;;;;;;11.17;55.71;101011.31;824278;24;1040;-79
2022/11/06 01:20:49;;;;;;;7.57;6.05;;;;;;;11.22;55.71;101019.28;828152;23;1045;-79
2022/11/06 01:21:19;;;;;;;7.63;5.97;;;;;;;11.25;55.53;101027.22;831901;23;1253;-79
2022/11/06 01:21:42;;;;;;;8.43;6.30;;;;;;;11.30;55.49;101029.97;825607;24;1000;-78
2022/11/06 01:22:02;;;;;;;8.77;6.38;;;;;;;11.24;55.53;101026.34;825755;24;1015;-79
2022/11/06 01:22:23;;;;;;;8.35;6.10;;;;;;;11.23;55.47;101013.22;827616;23;1154;-79
2022/11/06 01:22:44;;;;;;;9.77;6.35;;;;;;;11.24;55.63;101015.88;835890;23;1156;-79
2022/11/06 01:23:04;;;;;;;9.65;6.50;;;;;;;11.22;55.83;101025.41;816605;24;1020;-79
2022/11/06 01:23:25;;;;;;;8.97;6.60;;;;;;;11.23;55.53;101019.34;817945;24;999;-79
2022/11/06 01:23:46;;;;;;;7.82;6.60;;;;;;;11.32;55.50;101026.53;820142;24;1320;-79
2022/11/06 01:24:11;;;;;;;9.73;6.70;;;;;;;11.31;55.21;101022.16;820207;24;1416;-79
2022/11/06 01:24:32;;;;;;;9.13;6.38;;;;;;;11.27;55.54;101008.97;820128;24;1222;-79
2022/11/06 01:24:52;;;;;;;8.02;6.25;;;;;;;11.23;55.49;101011.50;823092;24;1211;-79
2022/11/06 01:25:13;;;;;;;8.13;6.20;;;;;;;11.26;55.82;101023.78;820019;24;1183;-80
2022/11/06 01:25:37;;;;;;;9.35;6.43;;;;;;;11.28;55.37;101013.34;821800;24;928;-78
2022/11/06 01:25:59;;;;;;;10.18;6.65;;;;;;;11.34;55.69;101031.81;824086;24;998;-79
2022/11/06 01:26:20;;;;;;;10.10;6.55;;;;;;;11.31;55.69;101027.38;816512;24;1203;-78
2022/11/06 01:26:41;;;;;;;8.93;6.28;;;;;;;11.30;55.69;101009.06;824301;24;990;-79
2022/11/06 01:27:01;;;;;;;7.63;5.80;;;;;;;11.36;55.55;101019.69;828134;23;812;-80
2022/11/06 01:27:22;;;;;;;8.60;5.78;;;;;;;11.22;55.49;101014.97;824057;24;1120;-79
2022/11/06 01:27:43;;;;;;;8.85;5.90;;;;;;;11.28;55.59;101022.09;833177;23;1042;-78
2022/11/06 01:28:04;;;;;;;9.97;6.17;;;;;;;11.36;55.57;101014.47;827988;23;1510;-79
2022/11/06 01:28:25;;;;;;;8.87;6.30;;;;;;;11.35;55.62;101012.69;824155;24;1274;-79
2022/11/06 01:28:45;;;;;;;8.10;6.38;;;;;;;11.34;55.37;101013.53;829442;23;1030;-79
2022/11/06 01:29:13;;;;;;;7.30;6.10;;;;;;;11.36;55.47;101020.56;827996;23;1256;-79
2022/11/06 01:29:34;;;;;;;7.40;5.57;;;;;;;11.28;55.53;101005.50;823977;24;1090;-79
2022/11/06 01:29:55;;;;;;;6.85;5.60;;;;;;;11.31;55.53;101016.06;823733;24;1105;-79
2022/11/06 01:30:16;;;;;;;7.45;5.60;;;;;;;11.30;55.37;101011.69;825497;24;983;-79
2022/11/06 01:30:37;;;;;;;7.88;5.95;;;;;;;11.36;55.39;101017.06;827757;23;1453;-79
2022/11/06 01:31:10;;;;;;;8.60;5.80;;;;;;;11.35;55.40;101002.22;835746;23;1095;-79
2022/11/06 01:31:32;;;;;;;7.95;5.70;;;;;;;11.43;55.09;101005.09;824021;24;1180;-79
2022/11/06 01:31:52;;;;;;;7.30;5.70;;;;;;;11.37;54.85;101001.44;829445;23;986;-79
2022/11/06 01:32:13;;;;;;;7.05;5.70;;;;;;;11.44;55.17;101012.06;820435;24;1267;-79
2022/11/06 01:32:35;;;;;;;7.27;5.60;;;;;;;11.40;55.07;101004.97;821591;24;932;-79
2022/11/06 01:32:55;;;;;;;6.80;5.70;;;;;;;11.40;54.85;101000.66;821643;24;1075;-79
2022/11/06 01:33:16;;;;;;;7.18;5.50;;;;;;;11.41;54.90;100997.19;819762;24;1294;-79
2022/11/06 01:33:37;;;;;;;8.05;5.97;;;;;;;11.43;54.84;100994.63;821794;24;1045;-79
2022/11/06 01:33:59;;;;;;;8.32;5.90;;;;;;;11.43;54.99;100997.25;820275;24;1076;-79
2022/11/06 01:34:20;;;;;;;7.85;5.63;;;;;;;11.42;55.16;100995.47;821664;24;1180;-80
2022/11/06 01:34:41;;;;;;;7.28;5.43;;;;;;;11.39;54.90;100988.44;820311;24;1138;-79
2022/11/06 01:35:01;;;;;;;6.73;5.47;;;;;;;11.41;54.99;100989.34;825730;24;799;-79
2022/11/06 01:35:22;;;;;;;7.20;5.70;;;;;;;11.46;54.84;100999.94;827796;23;1043;-79
2022/11/06 01:35:46;;;;;;;7.60;5.65;;;;;;;11.45;54.83;100988.59;829411;23;1122;-79
2022/11/06 01:36:12;;;;;;;9.40;5.90;;;;;;;11.41;54.78;100985.88;827666;23;1057;-79
2022/11/06 01:36:33;;;;;;;8.05;5.70;;;;;;;11.42;55.02;100993.72;827915;23;1898;-79
2022/11/06 01:36:54;;;;;;;8.77;5.67;;;;;;;11.46;54.83;100989.47;827988;23;1205;-79
2022/11/06 01:37:14;;;;;;;7.18;5.40;;;;;;;11.45;54.82;100991.22;829447;23;1074;-79
2022/11/06 01:37:35;;;;;;;8.20;5.90;;;;;;;11.51;54.74;100996.59;830332;23;1307;-80
2022/11/06 01:37:55;;;;;;;7.20;5.90;;;;;;;11.52;54.78;100993.16;833689;23;1010;-79
2022/11/06 01:38:16;;;;;;;7.65;6.05;;;;;;;11.47;54.91;100986.91;831958;23;1142;-79
2022/11/06 01:38:41;;;;;;;9.00;5.78;;;;;;;11.45;54.82;100992.94;829151;23;1360;-80
2022/11/06 01:39:05;;;;;;;9.23;5.60;;;;;;;11.51;55.10;100998.34;829418;23;1084;-79
2022/11/06 01:39:25;;;;;;;8.68;5.50;;;;;;;11.45;54.80;100988.59;829523;23;1110;-79
2022/11/06 01:39:48;;;;;;;7.40;5.75;;;;;;;11.44;54.80;100997.25;825213;24;892;-79
2022/11/06 01:40:09;;;;;;;7.13;5.97;;;;;;;11.45;54.94;100993.84;824209;24;1268;-80
2022/11/06 01:40:29;;;;;;;7.60;6.00;;;;;;;11.46;54.99;100999.94;824267;24;1360;-80
2022/11/06 01:41:12;;;;;;;7.93;6.00;;;;;;;11.44;55.09;100989.44;825277;24;1061;-79
2022/11/06 01:41:44;;;;;;;6.55;5.68;;;;;;;11.48;55.00;100998.25;827492;23;1077;-80
2022/11/06 01:42:04;;;;;;;6.85;5.50;;;;;;;11.37;55.04;100985.78;833240;23;1126;-79
2022/11/06 01:42:25;;;;;;;7.33;5.80;;;;;;;11.39;54.90;100983.22;824127;24;1034;-80
2022/11/06 01:42:45;;;;;;;8.57;6.10;;;;;;;11.38;55.06;100981.44;828124;23;1287;-79
2022/11/06 01:43:20;;;;;;;9.07;6.00;;;;;;;11.42;54.92;100991.13;829499;23;1149;-79
2022/11/06 01:43:53;;;;;;;8.90;5.97;;;;;;;11.41;54.83;100986.75;827794;23;1065;-79
2022/11/06 01:44:32;;;;;;;7.65;6.00;;;;;;;11.54;54.88;101000.16;828120;23;1074;-79
2022/11/06 01:45:20;;;;;;;7.57;5.65;;;;;;;11.60;54.64;101009.03;836076;23;1440;-80
2022/11/06 01:45:43;;;;;;;7.28;5.20;;;;;;;11.57;54.77;101003.75;818924;23;1267;-79
2022/11/06 01:46:03;;;;;;;6.53;5.18;;;;;;;11.47;54.65;100986.91;829089;23;962;-79
2022/11/06 01:46:27;;;;;;;9.13;5.30;;;;;;;11.51;54.53;100986.16;827972;23;1159;-79
2022/11/06 01:46:48;;;;;;;8.98;5.40;;;;;;;11.55;54.21;100994.09;830572;23;1392;-79
2022/11/06 01:47:29;;;;;;;8.00;5.38;;;;;;;11.54;54.48;100997.53;827264;23;1239;-79